« Back
NWS Peachtree City, Ga » Text Product » AHN Terminal Aerodrome Forecast


Printer-friendly Version
Current Version              Previous Versions:   1  2  3  4  5  6  7  8  9  

Terminal Aerodrome Forecast

386
FTUS42 KFFC 021100
TAFAHN
TAF
KAHN 021131Z 0212/0312 00000KT P6SM SCT150
     FM021400 VRB03KT P6SM SCT035 SCT150
     FM021800 25005KT P6SM SCT050
      TEMPO 0218/0222 VRB15G30KT 5SM TSRA BKN045CB
     FM030100 00000KT P6SM BKN120=

USA.gov is the U.S. government's official web portal to all federal, state and local government web resources and services.